Airfield :







YOU CAN JOIN US ON...

 
LOGIN :

Register | Disclaimer

   EN    FR    IT 

 









Legend :    VFR   Marginal VFR   IFR   Intensive IFR   Very Intensive IFR
Visi :
Ceiling :
>= 8 km
>= 3000ft
5 to 8 km
1000 to 3000 ft
1500m to 5 km
500 to 1000 ft
800 to 1500m
200 to 500 ft
< 800m
< 200 ft
Symbols :   Thunderstorms  Fog  Heavy snow  Heavy precipitations  Wind > 20 kt







- Airport Elevation : 83 ft


KBHB - Hancock County-Bar Harbor

CURRENT METAR :
  • 231856Z AUTO 32006KT 10SM CLR 24/12 A2988 RMK AO2 SLP120 T02440122

EXPIRED METARs :
  • 231756Z AUTO 34008KT 10SM CLR 24/13 A2988 RMK AO2 SLP118 T02440133 10244 20194 56007
  • 231656Z AUTO 29009G15KT 260V330 10SM FEW050 24/13 A2988 RMK AO2 SLP121 T02440128

TAF KBHB
Valid from the 23 at 18:00 until the 24 at 18:00 UTC


231736Z 2318/2418 29008G15KT P6SM FEW060
FM240000 30006KT P6SM FEW060
FM240600 32004KT P6SM FEW050
FM241400 35008G14KT P6SM SCT060
No reported NOTAMs for that airfield.



MET'MAP, your aeronautical weather chart ! - Copyright ORBIFLY December 2007 - Disclaimer

ORBIFLY MET'MAP TEAM :

Programming & Development : Alexandra Zaïnal
Concept & Development : Baudouin d'Aumeries
Co-Development & Prog : Marc-Olivier Méhu
Technical & hardware support : Manuel Goepfert

Contact : metmap@orbifly.com




SOURCES & CREDITS :

   NOAA